Hampton, VA

04:09 EDT le 22 septembre 2014 (GMT -0400)
Langley Air Force Base | Change Station
CLOSE
Current Station
Aéroport
Location: Langley AFB,
Altitude: 10 ft
Stations météo à proximité

Alt. 10 ft 37.08 °N, 76.36 °W | Updated 11 minutes ago

Nuageux
Nuageux
72 ° F
Paraît 72 ° F
N
8
Vent Variable Vent de ONO

Aujourd'hui
Haut(e) -- | Bas -- ° F
--% Risque de précip.
Hier
Haut(e) -- | Bas -- ° F
Precip. -- pouce
6:53 AM 7:02 PM
Lune descendante, 3% visible
Pression 29.84 pouce
Visibilité 10.0 Miles terrestres
Nuages Peu 12000 ft
Point de rosée 67 ° F
Humidité 83%
Précipitations 0.00 pouce
Profondeur de la couche neigeuse Non disponible.
UV 0 sur 12
Pollen 4.30 sur 12
Ozone Bon
PM2.5 Bon
Flu Activity Non disponible.
METAR KLFI 220758Z AUTO 29007KT 10SM FEW120 22/19 A2982 RMK AO2 SLP105 T02230192 TSNO $

More Conditions Fewer Conditions

Pression 29.84 pouce
Visibilité 10.0 Miles terrestres
Nuages Peu 12000 ft
Point de rosée 67 ° F
Humidité 83%
Précipitations 0.00 pouce
Profondeur de la couche neigeuse Non disponible.
UV 0 sur 12
Pollen 4.30 sur 12
Ozone Bon
PM2.5 Bon
Flu Activity Non disponible.
METAR KLFI 220758Z AUTO 29007KT 10SM FEW120 22/19 A2982 RMK AO2 SLP105 T02230192 TSNO $

More Conditions Fewer Conditions

10-Day Weather Forecast

Almanac

Astronomie

Sep. 22, 2014 Lever Coucher
Temps réel 06:53 EDT 19:02 EDT
Crépuscule civil 06:27 EDT 19:28 EDT
Crépuscule nautique 05:56 EDT 19:58 EDT
Crépuscule astronomique 05:26 EDT 20:29 EDT
Lune 05:21 EDT 18:07 EDT
Durée de lumière visible 13h 00m
Longueur du jour
12h 09m
Tomorrow will be 2m 22s shorter.
Lune descendante, 3% of the Moon is Illuminated
Aujourd'hui
Lune descendante
Sep 24
Nouveau
Oct 1
Premier quartier
Oct 8
Pleine lune
Oct 15
Dernier quartier

Extrêmes aujourd'hui

State Highs State Lows

Community

WunderPhotos

Upload Photos

1,755,392 Photos téléchargées !

Nearby

Qualité de l'air

  Qualité de l'air Indice de la qualité de l'air Polluant
Hier Bon
OZONE
Hier Bon
PM2.5
Actuel Bon
PM2.5
Actuel Bon
OZONE
lundi Bon
PM2.5

Épaisseur de neige

Station Depth Altitude
Pas de nouvelles chutes de neige

Activité sismique

Ville Distance Mag. Time & Date
No recent earthquake activity has been reported nearby.
Minimum magnitude displayed is 2.5.

Températures des eaux côtières

Lieu Température
Aucun rapport de station

Stations météo à proximité